Time;durP1;ratioP1;P1;durP2;ratioP2;P2;SDS_P1;SDS_P2;PMS_P1;PMS_P2;Temp;Humidity;BMP_temperature;BMP_pressure;BME280_temperature;BME280_humidity;BME280_pressure;Samples;Min_cycle;Max_cycle;Signal;HPM_P1;HPM_P2
2022/05/08 00:00:37;;;;;;;;;;;24.40;45.50;;;;;;1501422;79;1293;-57
2022/05/08 00:02:40;;;;;;;;;;;24.40;45.50;;;;;;1498152;79;706;-55
2022/05/08 00:04:42;;;;;;;;;;;24.50;45.60;;;;;;1494145;79;1907;-61
2022/05/08 00:06:44;;;;;;;;;;;24.40;45.50;;;;;;1502252;79;904;-59
2022/05/08 00:08:45;;;;;;;;;;;24.50;45.60;;;;;;1493140;78;1408;-58
2022/05/08 00:10:47;;;;;;;;;;;24.50;45.50;;;;;;1495538;78;1092;-57
2022/05/08 00:12:49;;;;;;;;;;;24.40;45.40;;;;;;1499253;79;784;-57
2022/05/08 00:14:51;;;;;;;;;;;24.50;45.50;;;;;;1503399;79;743;-61
2022/05/08 00:16:53;;;;;;;;;;;24.40;45.40;;;;;;1497955;78;741;-58
2022/05/08 00:18:55;;;;;;;;;;;24.40;45.40;;;;;;1501557;78;944;-58
2022/05/08 00:20:57;;;;;;;;;;;24.50;45.50;;;;;;1499427;78;1128;-58
2022/05/08 00:22:59;;;;;;;;;;;24.50;45.50;;;;;;1500438;78;1521;-57
2022/05/08 00:25:02;;;;;;;;;;;24.40;45.40;;;;;;1497013;78;1939;-54
2022/05/08 00:27:04;;;;;;;;;;;24.40;45.40;;;;;;1496283;78;962;-60
2022/05/08 00:29:07;;;;;;;;;;;24.50;45.50;;;;;;1496584;78;663;-57
2022/05/08 00:31:09;;;;;;;;;;;24.40;45.40;;;;;;1502704;79;1085;-58
2022/05/08 00:33:11;;;;;;;;;;;24.40;45.50;;;;;;1498083;79;741;-57
2022/05/08 00:35:13;;;;;;;;;;;24.40;45.40;;;;;;1493015;79;807;-57
2022/05/08 00:37:15;;;;;;;;;;;24.40;45.50;;;;;;1501835;78;1573;-60
2022/05/08 00:39:18;;;;;;;;;;;24.40;45.50;;;;;;1495825;78;1157;-58
2022/05/08 00:41:20;;;;;;;;;;;24.40;45.40;;;;;;1492941;79;676;-57
2022/05/08 00:43:32;;;;;;;;;;;24.30;45.50;;;;;;1495024;79;726;-57
2022/05/08 00:45:34;;;;;;;;;;;24.40;45.50;;;;;;1497083;79;1914;-56
2022/05/08 00:47:36;;;;;;;;;;;24.30;45.60;;;;;;1502412;78;683;-60
2022/05/08 00:49:38;;;;;;;;;;;24.30;45.50;;;;;;1502162;79;1631;-59
2022/05/08 00:51:40;;;;;;;;;;;24.40;45.50;;;;;;1491342;78;650;-59
2022/05/08 00:53:50;;;;;;;;;;;24.40;45.50;;;;;;1503608;79;752;-60
2022/05/08 00:55:52;;;;;;;;;;;24.30;45.50;;;;;;1491508;79;765;-60
2022/05/08 00:57:54;;;;;;;;;;;24.40;45.50;;;;;;1496175;79;770;-57
2022/05/08 00:59:55;;;;;;;;;;;24.30;45.50;;;;;;1497386;78;1161;-58
2022/05/08 01:01:57;;;;;;;;;;;24.30;45.60;;;;;;1499096;78;785;-57
2022/05/08 01:03:59;;;;;;;;;;;24.30;45.50;;;;;;1503038;78;1613;-59
2022/05/08 01:06:05;;;;;;;;;;;24.40;45.60;;;;;;1496878;78;1931;-60
2022/05/08 01:08:08;;;;;;;;;;;24.40;45.50;;;;;;1503601;79;727;-60
2022/05/08 01:10:10;;;;;;;;;;;24.30;45.60;;;;;;1503569;79;1084;-60
2022/05/08 01:12:12;;;;;;;;;;;24.30;45.60;;;;;;1503233;79;692;-59
2022/05/08 01:14:14;;;;;;;;;;;24.30;45.70;;;;;;1503721;79;766;-58
2022/05/08 01:16:17;;;;;;;;;;;24.40;45.70;;;;;;1503551;79;735;-58
2022/05/08 01:18:19;;;;;;;;;;;24.30;45.70;;;;;;1502949;78;1808;-60
2022/05/08 01:20:21;;;;;;;;;;;24.40;45.70;;;;;;1496896;78;1200;-57
2022/05/08 01:22:23;;;;;;;;;;;24.30;45.70;;;;;;1503075;78;679;-55
2022/05/08 01:24:25;;;;;;;;;;;24.40;45.70;;;;;;1503677;79;651;-58
2022/05/08 01:26:27;;;;;;;;;;;24.40;45.70;;;;;;1484322;79;1954;-57
2022/05/08 01:28:29;;;;;;;;;;;24.30;45.70;;;;;;1491132;78;702;-59
2022/05/08 01:30:32;;;;;;;;;;;24.40;45.60;;;;;;1503544;79;1147;-59
2022/05/08 01:32:34;;;;;;;;;;;24.40;45.60;;;;;;1502655;79;1712;-59
2022/05/08 01:34:36;;;;;;;;;;;24.40;45.60;;;;;;1503489;78;724;-59
2022/05/08 01:36:38;;;;;;;;;;;24.30;45.60;;;;;;1503411;78;717;-60
2022/05/08 01:38:39;;;;;;;;;;;24.40;45.60;;;;;;1518682;74;2104;-55
2022/05/08 01:40:43;;;;;;;;;;;24.40;45.60;;;;;;1546309;75;1150;-60
2022/05/08 01:42:45;;;;;;;;;;;24.40;45.60;;;;;;1545058;75;791;-55
2022/05/08 01:44:47;;;;;;;;;;;24.30;45.60;;;;;;1541636;75;1955;-58
2022/05/08 01:46:48;;;;;;;;;;;24.30;45.70;;;;;;1550410;75;1579;-59
2022/05/08 01:48:50;;;;;;;;;;;24.40;45.60;;;;;;1547158;76;674;-59
2022/05/08 01:50:53;;;;;;;;;;;24.30;45.70;;;;;;1556074;76;1114;-59
2022/05/08 01:52:55;;;;;;;;;;;24.30;45.60;;;;;;1555833;76;571;-56
2022/05/08 01:54:57;;;;;;;;;;;24.30;45.60;;;;;;1552070;75;773;-58
2022/05/08 01:56:59;;;;;;;;;;;24.30;45.60;;;;;;1537151;75;674;-59
2022/05/08 01:59:01;;;;;;;;;;;24.40;45.50;;;;;;1535774;76;755;-57
2022/05/08 02:01:04;;;;;;;;;;;24.30;45.60;;;;;;1548050;76;1617;-56
2022/05/08 02:03:06;;;;;;;;;;;24.30;45.60;;;;;;1536890;76;644;-58
2022/05/08 02:05:08;;;;;;;;;;;24.30;45.60;;;;;;1540733;76;1942;-58
2022/05/08 02:07:10;;;;;;;;;;;24.30;45.60;;;;;;1524244;77;675;-57
2022/05/08 02:09:12;;;;;;;;;;;24.30;45.60;;;;;;1559936;75;811;-58
2022/05/08 02:11:14;;;;;;;;;;;24.30;45.60;;;;;;1555439;75;1095;-58
2022/05/08 02:13:16;;;;;;;;;;;24.30;45.70;;;;;;1549301;76;784;-56
2022/05/08 02:15:18;;;;;;;;;;;24.30;45.60;;;;;;1552655;76;1659;-57
2022/05/08 02:17:22;;;;;;;;;;;24.30;45.60;;;;;;1556058;76;659;-55
2022/05/08 02:19:23;;;;;;;;;;;24.30;45.60;;;;;;1555876;76;1666;-58
2022/05/08 02:21:25;;;;;;;;;;;24.30;45.60;;;;;;1558144;75;749;-55
2022/05/08 02:23:27;;;;;;;;;;;24.30;45.60;;;;;;1542957;75;679;-58
2022/05/08 02:25:30;;;;;;;;;;;24.30;45.60;;;;;;1555752;75;1930;-59
2022/05/08 02:27:39;;;;;;;;;;;24.30;45.60;;;;;;1557413;76;759;-58
2022/05/08 02:29:40;;;;;;;;;;;24.30;45.60;;;;;;1534907;76;1661;-58
2022/05/08 02:31:42;;;;;;;;;;;24.30;45.60;;;;;;1558743;76;660;-59
2022/05/08 02:33:44;;;;;;;;;;;24.40;45.50;;;;;;1555644;76;658;-57
2022/05/08 02:35:46;;;;;;;;;;;24.40;45.50;;;;;;1556403;75;769;-59
2022/05/08 02:37:53;;;;;;;;;;;24.50;45.60;;;;;;1574529;75;648;-58
2022/05/08 02:39:55;;;;;;;;;;;24.50;45.40;;;;;;1531787;76;1163;-59
2022/05/08 02:41:56;;;;;;;;;;;24.50;45.40;;;;;;1551245;76;667;-59
2022/05/08 02:43:58;;;;;;;;;;;24.60;45.20;;;;;;1533807;76;1650;-58
2022/05/08 02:46:02;;;;;;;;;;;24.70;45.20;;;;;;1548666;76;1943;-58
2022/05/08 02:48:04;;;;;;;;;;;24.70;45.10;;;;;;1545714;76;717;-59
2022/05/08 02:50:06;;;;;;;;;;;24.70;45.00;;;;;;1538261;76;1161;-57
2022/05/08 02:52:08;;;;;;;;;;;24.70;45.00;;;;;;1552804;75;675;-59
2022/05/08 02:54:10;;;;;;;;;;;24.70;45.00;;;;;;1560239;75;695;-58
2022/05/08 02:58:34;;;;;;;;;;;24.60;45.10;;;;;;1557247;76;1656;-58
2022/05/08 03:00:36;;;;;;;;;;;24.60;45.10;;;;;;1548090;75;1127;-58
2022/05/08 03:02:38;;;;;;;;;;;24.50;45.20;;;;;;1565214;75;762;-58
2022/05/08 03:04:41;;;;;;;;;;;24.50;45.30;;;;;;1541145;75;777;-57
2022/05/08 03:06:43;;;;;;;;;;;24.50;45.30;;;;;;1550551;75;1917;-58
2022/05/08 03:08:45;;;;;;;;;;;24.50;45.20;;;;;;1578213;75;656;-58
2022/05/08 03:13:07;;;;;;;;;;;24.50;45.40;;;;;;1542300;76;1633;-58
2022/05/08 03:15:10;;;;;;;;;;;24.50;45.30;;;;;;1530003;77;643;-58
2022/05/08 03:17:12;;;;;;;;;;;24.50;45.50;;;;;;1542314;76;753;-57
2022/05/08 03:19:14;;;;;;;;;;;24.50;45.40;;;;;;1541147;75;574;-58
2022/05/08 03:21:16;;;;;;;;;;;24.50;45.40;;;;;;1536860;75;666;-58
2022/05/08 03:23:18;;;;;;;;;;;24.50;45.40;;;;;;1519781;78;650;-58
2022/05/08 03:25:20;;;;;;;;;;;24.50;45.40;;;;;;1525221;76;1940;-57
2022/05/08 03:27:22;;;;;;;;;;;24.50;45.30;;;;;;1540195;76;670;-58
2022/05/08 03:29:25;;;;;;;;;;;24.50;45.20;;;;;;1556080;76;1118;-58
2022/05/08 03:31:27;;;;;;;;;;;24.50;45.20;;;;;;1555220;76;670;-59
2022/05/08 03:33:29;;;;;;;;;;;24.50;45.30;;;;;;1556511;75;671;-59
2022/05/08 03:35:31;;;;;;;;;;;24.50;45.20;;;;;;1556004;75;736;-58
2022/05/08 03:37:33;;;;;;;;;;;24.50;45.30;;;;;;1556200;76;641;-57
2022/05/08 03:39:35;;;;;;;;;;;24.50;45.20;;;;;;1557186;76;1700;-58
2022/05/08 03:41:37;;;;;;;;;;;24.50;45.40;;;;;;1558807;76;693;-57
2022/05/08 03:43:38;;;;;;;;;;;24.60;45.30;;;;;;1555238;76;763;-56
2022/05/08 03:45:40;;;;;;;;;;;24.50;45.20;;;;;;1549510;75;1942;-58
2022/05/08 03:47:42;;;;;;;;;;;24.60;45.20;;;;;;1563386;75;695;-59
2022/05/08 03:49:44;;;;;;;;;;;24.50;45.20;;;;;;1570257;75;1142;-58
2022/05/08 03:51:46;;;;;;;;;;;24.50;45.20;;;;;;1530030;78;811;-57
2022/05/08 03:53:48;;;;;;;;;;;24.60;45.10;;;;;;1538942;76;1675;-57
2022/05/08 03:55:50;;;;;;;;;;;24.60;45.00;;;;;;1531908;76;659;-57
2022/05/08 03:57:52;;;;;;;;;;;24.60;45.00;;;;;;1537159;76;755;-57
2022/05/08 03:59:53;;;;;;;;;;;24.60;45.00;;;;;;1556146;76;1113;-57
2022/05/08 04:01:55;;;;;;;;;;;24.60;45.00;;;;;;1532597;76;727;-59
2022/05/08 04:03:59;;;;;;;;;;;24.70;45.20;;;;;;1537231;75;721;-60
2022/05/08 04:06:01;;;;;;;;;;;24.80;44.90;;;;;;1560080;75;1923;-58
2022/05/08 04:08:02;;;;;;;;;;;24.90;44.60;;;;;;1522408;77;1656;-55
2022/05/08 04:10:05;;;;;;;;;;;25.00;44.30;;;;;;1556671;76;1097;-60
2022/05/08 04:12:07;;;;;;;;;;;25.00;44.10;;;;;;1535337;76;688;-59
2022/05/08 04:14:09;;;;;;;;;;;25.10;44.00;;;;;;1529815;78;650;-57
2022/05/08 04:16:17;;;;;;;;;;;25.10;43.90;;;;;;1531073;76;670;-58
2022/05/08 04:18:18;;;;;;;;;;;25.20;43.80;;;;;;1551599;76;623;-59
2022/05/08 04:20:20;;;;;;;;;;;25.20;43.90;;;;;;1542969;76;1158;-59
2022/05/08 04:24:42;;;;;;;;;;;25.10;43.90;;;;;;1554092;75;1672;-58
2022/05/08 04:26:44;;;;;;;;;;;25.10;43.80;;;;;;1557998;75;1932;-56
2022/05/08 04:28:46;;;;;;;;;;;25.00;43.90;;;;;;1552829;75;753;-56
2022/05/08 04:30:49;;;;;;;;;;;25.00;44.00;;;;;;1554354;75;1133;-59
2022/05/08 04:32:51;;;;;;;;;;;25.00;44.00;;;;;;1549212;75;738;-59
2022/05/08 04:34:53;;;;;;;;;;;24.90;44.00;;;;;;1554772;75;1564;-59
2022/05/08 04:36:55;;;;;;;;;;;25.00;44.10;;;;;;1552485;75;696;-59
2022/05/08 04:38:57;;;;;;;;;;;25.00;44.00;;;;;;1554438;75;671;-57
2022/05/08 04:40:59;;;;;;;;;;;25.00;44.10;;;;;;1551648;75;1133;-56
2022/05/08 04:43:01;;;;;;;;;;;25.00;44.10;;;;;;1553553;75;707;-58
2022/05/08 04:45:03;;;;;;;;;;;24.90;44.10;;;;;;1553525;75;720;-58
2022/05/08 04:47:05;;;;;;;;;;;25.00;44.10;;;;;;1560741;75;1920;-59
2022/05/08 04:49:07;;;;;;;;;;;25.00;44.10;;;;;;1549096;75;1333;-58
2022/05/08 04:51:09;;;;;;;;;;;24.90;44.00;;;;;;1556090;75;1100;-58
2022/05/08 04:53:11;;;;;;;;;;;25.00;44.00;;;;;;1572538;74;707;-58
2022/05/08 04:55:12;;;;;;;;;;;25.00;44.00;;;;;;1546969;75;775;-57
2022/05/08 04:57:14;;;;;;;;;;;25.00;43.90;;;;;;1555888;75;712;-58
2022/05/08 04:59:16;;;;;;;;;;;25.00;43.90;;;;;;1541656;75;1181;-56
2022/05/08 05:01:18;;;;;;;;;;;25.00;43.80;;;;;;1553351;75;762;-59
2022/05/08 05:03:20;;;;;;;;;;;25.00;43.70;;;;;;1547041;75;1541;-59
2022/05/08 05:05:22;;;;;;;;;;;25.00;43.70;;;;;;1551767;75;682;-59
2022/05/08 05:07:24;;;;;;;;;;;25.00;43.70;;;;;;1557253;75;1941;-57
2022/05/08 05:09:26;;;;;;;;;;;25.00;43.80;;;;;;1552602;75;1105;-56
2022/05/08 05:11:28;;;;;;;;;;;25.10;43.70;;;;;;1550246;75;720;-58
2022/05/08 05:13:30;;;;;;;;;;;25.10;43.80;;;;;;1544964;75;653;-59
2022/05/08 05:15:32;;;;;;;;;;;25.10;43.70;;;;;;1538813;75;654;-56
2022/05/08 05:17:33;;;;;;;;;;;25.00;43.80;;;;;;1544359;75;1589;-58
2022/05/08 05:19:35;;;;;;;;;;;25.00;43.80;;;;;;1541275;75;1139;-59
2022/05/08 05:21:37;;;;;;;;;;;25.10;43.90;;;;;;1540999;75;676;-60
2022/05/08 05:23:39;;;;;;;;;;;25.00;43.90;;;;;;1548936;75;687;-58
2022/05/08 05:25:41;;;;;;;;;;;25.10;43.90;;;;;;1547420;75;811;-57
2022/05/08 05:27:43;;;;;;;;;;;25.10;43.80;;;;;;1532778;75;1940;-58
2022/05/08 05:29:45;;;;;;;;;;;25.20;43.70;;;;;;1552971;75;1132;-57
2022/05/08 05:31:47;;;;;;;;;;;25.10;43.70;;;;;;1553181;75;1563;-58
2022/05/08 05:33:49;;;;;;;;;;;25.10;43.60;;;;;;1541122;75;706;-57
2022/05/08 05:35:51;;;;;;;;;;;25.10;43.60;;;;;;1548186;75;712;-58
2022/05/08 05:37:53;;;;;;;;;;;25.00;43.70;;;;;;1545260;75;703;-58
2022/05/08 05:39:54;;;;;;;;;;;25.00;43.60;;;;;;1544909;75;1153;-59
2022/05/08 05:41:56;;;;;;;;;;;25.10;43.60;;;;;;1535796;75;766;-58
2022/05/08 05:43:58;;;;;;;;;;;25.00;43.60;;;;;;1555665;75;697;-58
2022/05/08 05:48:20;;;;;;;;;;;25.00;43.80;;;;;;1548086;75;1634;-57
2022/05/08 05:50:23;;;;;;;;;;;25.10;43.60;;;;;;1545224;75;1174;-55
2022/05/08 05:52:24;;;;;;;;;;;25.10;43.60;;;;;;1544018;75;760;-56
2022/05/08 05:54:26;;;;;;;;;;;25.00;43.70;;;;;;1544952;75;760;-55
2022/05/08 05:56:28;;;;;;;;;;;25.00;43.90;;;;;;1546727;75;692;-59
2022/05/08 05:58:31;;;;;;;;;;;24.90;44.40;;;;;;1552679;75;772;-58
2022/05/08 06:00:32;;;;;;;;;;;24.90;44.40;;;;;;1556431;75;1610;-59
2022/05/08 06:02:34;;;;;;;;;;;25.00;44.50;;;;;;1560578;75;665;-59
2022/05/08 06:04:36;;;;;;;;;;;25.00;44.50;;;;;;1550860;76;729;-58
2022/05/08 06:06:38;;;;;;;;;;;24.90;44.50;;;;;;1526334;78;1941;-57
2022/05/08 06:08:40;;;;;;;;;;;25.00;44.70;;;;;;1526494;78;507;-57
2022/05/08 06:10:42;;;;;;;;;;;25.00;44.70;;;;;;1526458;78;1123;-55
2022/05/08 06:12:44;;;;;;;;;;;25.00;45.20;;;;;;1521461;76;650;-56
2022/05/08 06:14:50;;;;;;;;;;;24.90;45.20;;;;;;1545503;76;1427;-58
2022/05/08 06:16:49;;;;;;;;;;;25.00;45.60;;;;;;1554400;75;1275;-58
2022/05/08 06:18:51;;;;;;;;;;;24.90;45.90;;;;;;1566822;75;693;-58
2022/05/08 06:20:54;;;;;;;;;;;24.80;46.20;;;;;;1534041;75;1147;-57
2022/05/08 06:22:56;;;;;;;;;;;24.80;46.10;;;;;;1529015;75;731;-59
2022/05/08 06:24:58;;;;;;;;;;;24.80;45.60;;;;;;1561600;75;636;-55
2022/05/08 06:27:00;;;;;;;;;;;24.80;45.80;;;;;;1546377;76;1911;-60
2022/05/08 06:29:02;;;;;;;;;;;24.90;46.00;;;;;;1554327;76;1706;-59
2022/05/08 06:31:04;;;;;;;;;;;24.80;45.50;;;;;;1548956;76;1110;-59
2022/05/08 06:33:06;;;;;;;;;;;25.00;45.20;;;;;;1546588;75;677;-57
2022/05/08 06:35:08;;;;;;;;;;;25.00;45.10;;;;;;1544357;75;744;-59
2022/05/08 06:37:11;;;;;;;;;;;25.00;45.00;;;;;;1541155;75;691;-59
2022/05/08 06:39:17;;;;;;;;;;;25.00;45.00;;;;;;1558564;76;740;-59
2022/05/08 06:41:16;;;;;;;;;;;24.90;44.90;;;;;;1556752;75;1611;-56
2022/05/08 06:43:18;;;;;;;;;;;24.90;44.90;;;;;;1547034;76;629;-59
2022/05/08 06:45:24;;;;;;;;;;;24.90;44.90;;;;;;1550484;76;690;-59
2022/05/08 06:47:23;;;;;;;;;;;24.90;44.80;;;;;;1553744;75;1935;-59
2022/05/08 06:49:25;;;;;;;;;;;24.80;44.70;;;;;;1575656;75;1159;-58
2022/05/08 06:51:27;;;;;;;;;;;24.80;44.70;;;;;;1563596;75;639;-57
2022/05/08 06:53:29;;;;;;;;;;;24.80;44.70;;;;;;1537813;76;686;-56
2022/05/08 06:55:32;;;;;;;;;;;24.80;44.70;;;;;;1538013;76;1544;-58
2022/05/08 06:57:34;;;;;;;;;;;24.90;44.80;;;;;;1542392;76;679;-58
2022/05/08 07:01:56;;;;;;;;;;;24.80;44.70;;;;;;1533676;75;1654;-58
2022/05/08 07:03:58;;;;;;;;;;;24.80;44.70;;;;;;1535266;76;667;-57
2022/05/08 07:06:00;;;;;;;;;;;24.80;44.60;;;;;;1550249;76;795;-57
2022/05/08 07:08:02;;;;;;;;;;;24.80;44.70;;;;;;1550044;77;1955;-58
2022/05/08 07:10:04;;;;;;;;;;;24.70;44.70;;;;;;1547583;76;1702;-59
2022/05/08 07:12:06;;;;;;;;;;;24.80;44.60;;;;;;1531806;76;709;-58
2022/05/08 07:14:08;;;;;;;;;;;24.80;44.60;;;;;;1552910;75;780;-58
2022/05/08 07:16:10;;;;;;;;;;;24.80;44.60;;;;;;1560569;75;680;-59
2022/05/08 07:18:12;;;;;;;;;;;24.80;44.50;;;;;;1537434;75;712;-58
2022/05/08 07:20:14;;;;;;;;;;;24.80;44.50;;;;;;1555379;75;1150;-58
2022/05/08 07:22:16;;;;;;;;;;;24.80;44.50;;;;;;1553363;75;723;-58
2022/05/08 07:24:18;;;;;;;;;;;24.80;44.60;;;;;;1545105;76;1694;-59
2022/05/08 07:26:19;;;;;;;;;;;24.80;44.50;;;;;;1546952;76;699;-58
2022/05/08 07:28:21;;;;;;;;;;;24.90;44.50;;;;;;1549974;75;1935;-59
2022/05/08 07:30:23;;;;;;;;;;;24.80;44.50;;;;;;1566487;75;1152;-59
2022/05/08 07:32:25;;;;;;;;;;;24.80;44.40;;;;;;1530123;76;691;-58
2022/05/08 07:36:47;;;;;;;;;;;24.80;44.40;;;;;;1565035;75;740;-54
2022/05/08 07:38:49;;;;;;;;;;;24.80;44.40;;;;;;1561847;73;228209;-64
2022/05/08 07:40:51;;;;;;;;;;;24.80;44.40;;;;;;1562764;74;700;-63
2022/05/08 07:42:53;;;;;;;;;;;24.80;44.40;;;;;;1577938;74;723;-69
2022/05/08 07:44:55;;;;;;;;;;;24.90;44.50;;;;;;1580196;74;618;-63
2022/05/08 07:46:57;;;;;;;;;;;24.80;44.40;;;;;;1579526;74;1935;-61
2022/05/08 07:48:58;;;;;;;;;;;24.80;44.40;;;;;;1586476;73;1219;-63
2022/05/08 07:51:01;;;;;;;;;;;24.80;44.40;;;;;;1615159;73;712;-63
2022/05/08 07:53:03;;;;;;;;;;;24.80;44.40;;;;;;1614221;73;1680;-63
2022/05/08 07:55:05;;;;;;;;;;;24.80;44.40;;;;;;1595108;73;719;-63
2022/05/08 07:57:07;;;;;;;;;;;24.80;44.40;;;;;;1606619;73;683;-63
2022/05/08 07:59:09;;;;;;;;;;;24.80;44.40;;;;;;1623100;72;1153;-63
2022/05/08 08:01:11;;;;;;;;;;;24.80;44.30;;;;;;1587290;73;704;-63
2022/05/08 08:03:13;;;;;;;;;;;24.80;44.40;;;;;;1594113;73;720;-63
2022/05/08 08:05:15;;;;;;;;;;;24.80;44.40;;;;;;1593685;73;688;-64
2022/05/08 08:07:17;;;;;;;;;;;24.90;44.30;;;;;;1599142;73;1933;-63
2022/05/08 08:09:19;;;;;;;;;;;24.80;44.40;;;;;;1596567;73;1195;-69
2022/05/08 08:11:20;;;;;;;;;;;24.80;44.40;;;;;;1584334;73;704;-70
2022/05/08 08:13:31;;;;;;;;;;;25.00;44.50;;;;;;1589776;73;735;-70
2022/05/08 08:15:29;;;;;;;;;;;25.00;44.30;;;;;;1583099;73;1665;-70
2022/05/08 08:17:31;;;;;;;;;;;24.90;44.40;;;;;;1597017;73;678;-68
2022/05/08 08:19:33;;;;;;;;;;;24.90;44.40;;;;;;1588350;73;1131;-68
2022/05/08 08:21:35;;;;;;;;;;;25.00;44.50;;;;;;1596936;73;696;-68
2022/05/08 08:23:37;;;;;;;;;;;25.00;44.50;;;;;;1604391;73;703;-67
2022/05/08 08:25:39;;;;;;;;;;;25.00;44.50;;;;;;1596027;73;1301;-69
2022/05/08 08:27:41;;;;;;;;;;;25.00;44.70;;;;;;1594506;73;1911;-69
2022/05/08 08:29:43;;;;;;;;;;;25.00;44.70;;;;;;1605593;72;1184;-70
2022/05/08 08:31:45;;;;;;;;;;;25.00;44.70;;;;;;1598772;73;738;-70
2022/05/08 08:33:48;;;;;;;;;;;25.00;44.80;;;;;;1601200;72;740;-71
2022/05/08 08:35:50;;;;;;;;;;;25.00;44.80;;;;;;1600102;72;646;-68
2022/05/08 08:37:52;;;;;;;;;;;25.00;44.90;;;;;;1605750;72;683;-68
2022/05/08 08:39:54;;;;;;;;;;;25.00;45.00;;;;;;1604431;72;1113;-69
2022/05/08 08:42:03;;;;;;;;;;;24.90;45.10;;;;;;1596802;72;672;-71
2022/05/08 08:48:45;;;;;;;;;;;24.80;45.50;;;;;;1611353;72;1889;-69
2022/05/08 08:50:47;;;;;;;;;;;24.80;45.60;;;;;;1605731;72;682;-72
2022/05/08 08:52:49;;;;;;;;;;;24.70;45.70;;;;;;1612926;73;732;-69
2022/05/08 08:54:51;;;;;;;;;;;24.70;45.80;;;;;;1601189;72;715;-68
2022/05/08 08:56:53;;;;;;;;;;;24.70;46.00;;;;;;1601995;72;676;-68
2022/05/08 08:58:55;;;;;;;;;;;24.60;45.90;;;;;;1611860;72;1114;-71
2022/05/08 09:00:57;;;;;;;;;;;24.60;46.00;;;;;;1609345;72;658;-69
2022/05/08 09:02:58;;;;;;;;;;;24.60;46.10;;;;;;1602082;72;714;-69
2022/05/08 09:05:04;;;;;;;;;;;24.60;46.10;;;;;;1608714;72;733;-68
2022/05/08 09:07:05;;;;;;;;;;;24.70;46.30;;;;;;1601504;72;727;-70
2022/05/08 09:09:23;;;;;;;;;;;24.60;46.30;;;;;;1610823;71;1948;-75
2022/05/08 09:11:34;;;;;;;;;;;24.60;46.30;;;;;;1609627;72;662;-68
2022/05/08 09:13:38;;;;;;;;;;;24.70;46.40;;;;;;1599482;73;673;-69
2022/05/08 09:15:40;;;;;;;;;;;24.70;46.50;;;;;;1571877;73;692;-68
2022/05/08 09:17:45;;;;;;;;;;;24.70;46.50;;;;;;1603907;72;1598;-70
2022/05/08 09:19:47;;;;;;;;;;;24.60;46.30;;;;;;1605835;72;1180;-69
2022/05/08 09:21:56;;;;;;;;;;;24.60;46.40;;;;;;1600856;72;648;-69
2022/05/08 09:24:08;;;;;;;;;;;24.60;46.30;;;;;;1577350;74;735;-69
2022/05/08 09:26:10;;;;;;;;;;;24.60;46.40;;;;;;1608460;72;721;-69
2022/05/08 09:28:13;;;;;;;;;;;24.60;46.40;;;;;;1606952;72;1944;-69
2022/05/08 09:30:15;;;;;;;;;;;24.60;46.40;;;;;;1605167;72;777;-71
2022/05/08 09:32:36;;;;;;;;;;;24.70;46.60;;;;;;1597946;72;687;-71
2022/05/08 09:35:01;;;;;;;;;;;24.60;46.50;;;;;;1612471;72;702;-67
2022/05/08 09:37:07;;;;;;;;;;;24.60;46.50;;;;;;1609320;72;1648;-71
2022/05/08 09:39:09;;;;;;;;;;;24.60;46.50;;;;;;1599226;73;1648;-70
2022/05/08 09:41:11;;;;;;;;;;;24.60;46.50;;;;;;1603586;72;680;-71
2022/05/08 09:43:32;;;;;;;;;;;24.60;46.50;;;;;;1605362;72;675;-69
2022/05/08 09:45:34;;;;;;;;;;;24.60;46.60;;;;;;1604570;72;635;-69
2022/05/08 09:47:42;;;;;;;;;;;24.70;46.70;;;;;;1602383;72;1936;-69
2022/05/08 09:49:44;;;;;;;;;;;24.60;46.60;;;;;;1606306;72;1146;-68
2022/05/08 09:51:46;;;;;;;;;;;24.70;46.70;;;;;;1599882;72;696;-69
2022/05/08 09:53:48;;;;;;;;;;;24.70;46.80;;;;;;1604827;72;700;-70
2022/05/08 09:55:50;;;;;;;;;;;24.60;46.60;;;;;;1611889;72;693;-68
2022/05/08 09:57:52;;;;;;;;;;;24.60;46.60;;;;;;1610534;72;708;-68
2022/05/08 09:59:54;;;;;;;;;;;24.70;46.70;;;;;;1609366;72;1117;-68
2022/05/08 10:01:55;;;;;;;;;;;24.70;46.70;;;;;;1601247;72;659;-70
2022/05/08 10:03:59;;;;;;;;;;;24.70;46.60;;;;;;1600051;72;766;-68
2022/05/08 10:06:01;;;;;;;;;;;24.70;46.70;;;;;;1602197;72;640;-70
2022/05/08 10:08:03;;;;;;;;;;;24.70;46.60;;;;;;1595574;72;1900;-70
2022/05/08 10:14:49;;;;;;;;;;;24.80;46.30;;;;;;1606735;72;744;-68
2022/05/08 10:16:58;;;;;;;;;;;24.90;46.30;;;;;;1593976;72;1623;-69
2022/05/08 10:19:01;;;;;;;;;;;24.90;46.20;;;;;;1614368;71;1159;-66
2022/05/08 10:21:12;;;;;;;;;;;25.00;46.10;;;;;;1595663;72;1476;-68
2022/05/08 10:23:15;;;;;;;;;;;24.90;46.00;;;;;;1612971;72;1634;-68
2022/05/08 10:25:17;;;;;;;;;;;25.00;45.70;;;;;;1593574;72;1864;-68
2022/05/08 10:27:23;;;;;;;;;;;25.20;45.30;;;;;;1603912;72;661;-68
2022/05/08 10:29:25;;;;;;;;;;;25.20;45.00;;;;;;1606902;72;1928;-68
2022/05/08 10:31:44;;;;;;;;;;;25.20;44.90;;;;;;1596964;72;1441;-67
2022/05/08 10:34:04;;;;;;;;;;;25.20;44.80;;;;;;1596894;72;721;-68
2022/05/08 10:36:08;;;;;;;;;;;25.20;44.90;;;;;;1597293;72;766;-65
2022/05/08 10:38:12;;;;;;;;;;;25.20;44.80;;;;;;1597450;72;777;-67
2022/05/08 10:40:25;;;;;;;;;;;25.10;44.90;;;;;;1593632;72;761;-70
2022/05/08 10:42:39;;;;;;;;;;;25.10;44.90;;;;;;1599520;72;722;-67
2022/05/08 10:44:42;;;;;;;;;;;25.10;45.00;;;;;;1593515;72;1763;-67
2022/05/08 10:46:42;;;;;;;;;;;25.00;45.00;;;;;;1599915;72;1704;-67
2022/05/08 10:48:44;;;;;;;;;;;25.00;45.00;;;;;;1599778;71;1933;-67
2022/05/08 10:50:51;;;;;;;;;;;25.00;44.90;;;;;;1589498;72;714;-67
2022/05/08 10:52:53;;;;;;;;;;;25.00;45.00;;;;;;1602804;72;1064;-67
2022/05/08 10:54:55;;;;;;;;;;;25.00;45.00;;;;;;1598672;72;776;-68
2022/05/08 10:56:57;;;;;;;;;;;25.00;45.00;;;;;;1600111;73;712;-68
2022/05/08 10:59:00;;;;;;;;;;;24.90;45.00;;;;;;1614371;71;1147;-68
2022/05/08 11:01:04;;;;;;;;;;;24.90;45.00;;;;;;1609187;72;694;-69
2022/05/08 11:03:05;;;;;;;;;;;25.00;45.00;;;;;;1618563;72;1806;-65
2022/05/08 11:05:08;;;;;;;;;;;25.00;45.00;;;;;;1618727;71;739;-65
2022/05/08 11:07:10;;;;;;;;;;;25.00;45.00;;;;;;1627867;72;693;-67
2022/05/08 11:09:12;;;;;;;;;;;25.00;44.90;;;;;;1622151;71;1892;-67
2022/05/08 11:11:14;;;;;;;;;;;24.90;44.90;;;;;;1616514;72;621;-68
2022/05/08 11:13:17;;;;;;;;;;;24.90;44.90;;;;;;1606632;72;709;-69
2022/05/08 11:15:19;;;;;;;;;;;25.00;44.80;;;;;;1612007;72;722;-67
2022/05/08 11:17:21;;;;;;;;;;;25.00;44.70;;;;;;1628111;72;618;-66
2022/05/08 11:19:23;;;;;;;;;;;25.00;44.70;;;;;;1637679;71;1144;-68
2022/05/08 11:21:26;;;;;;;;;;;25.00;44.70;;;;;;1632036;71;657;-67
2022/05/08 11:23:29;;;;;;;;;;;25.10;44.60;;;;;;1637675;72;633;-69
2022/05/08 11:25:32;;;;;;;;;;;25.00;44.60;;;;;;1603529;72;1842;-64
2022/05/08 11:27:34;;;;;;;;;;;25.10;44.60;;;;;;1606287;72;1525;-67
2022/05/08 11:29:35;;;;;;;;;;;25.10;44.50;;;;;;1605847;72;1953;-70
2022/05/08 11:36:03;;;;;;;;;;;25.10;44.50;;;;;;1618195;72;728;-64
2022/05/08 11:36:07;;;;;;;;;;;25.00;44.50;;;;;;1594476;72;1626;-63
2022/05/08 11:38:11;;;;;;;;;;;25.00;44.60;;;;;;1595921;72;628;-66
2022/05/08 11:40:12;;;;;;;;;;;25.00;44.70;;;;;;1603675;72;1638;-64
2022/05/08 11:42:14;;;;;;;;;;;24.90;44.70;;;;;;1602850;72;796;-66
2022/05/08 11:44:19;;;;;;;;;;;24.80;44.70;;;;;;1603302;72;775;-65
2022/05/08 11:46:23;;;;;;;;;;;25.00;44.80;;;;;;1601985;72;639;-67
2022/05/08 11:48:26;;;;;;;;;;;25.00;44.80;;;;;;1585960;71;1919;-64
2022/05/08 11:50:30;;;;;;;;;;;25.00;44.90;;;;;;1625120;72;1692;-66
2022/05/08 11:52:32;;;;;;;;;;;25.00;44.90;;;;;;1633020;72;2418;-67
2022/05/08 11:54:37;;;;;;;;;;;25.00;45.00;;;;;;1631107;72;796;-64
2022/05/08 11:56:40;;;;;;;;;;;25.00;45.00;;;;;;1635436;72;655;-64
2022/05/08 11:58:42;;;;;;;;;;;25.00;45.10;;;;;;1626608;72;1081;-65
2022/05/08 12:00:43;;;;;;;;;;;25.00;45.30;;;;;;1611057;72;672;-63
2022/05/08 12:02:50;;;;;;;;;;;24.90;45.40;;;;;;1608770;72;590;-64
2022/05/08 12:04:53;;;;;;;;;;;25.00;45.50;;;;;;1618715;72;2063;-63
2022/05/08 12:06:59;;;;;;;;;;;24.90;45.50;;;;;;1617933;72;485;-63
2022/05/08 12:09:01;;;;;;;;;;;25.00;45.50;;;;;;1604546;72;1926;-62
2022/05/08 12:11:03;;;;;;;;;;;25.00;45.60;;;;;;1620194;72;1897;-64
2022/05/08 12:13:05;;;;;;;;;;;24.90;45.60;;;;;;1619688;72;776;-62
2022/05/08 12:15:12;;;;;;;;;;;24.80;45.50;;;;;;1615028;72;670;-62
2022/05/08 12:17:14;;;;;;;;;;;24.90;45.60;;;;;;1595155;72;611;-63
2022/05/08 12:19:18;;;;;;;;;;;24.90;45.60;;;;;;1590688;73;1132;-64
2022/05/08 12:21:29;;;;;;;;;;;25.00;45.60;;;;;;1594859;72;722;-62
2022/05/08 12:23:31;;;;;;;;;;;24.90;45.70;;;;;;1590504;72;1443;-62
2022/05/08 12:25:33;;;;;;;;;;;24.90;45.60;;;;;;1589560;72;703;-63
2022/05/08 12:27:35;;;;;;;;;;;24.90;45.60;;;;;;1601733;72;733;-64
2022/05/08 12:29:38;;;;;;;;;;;24.90;45.50;;;;;;1595112;71;1939;-63
2022/05/08 12:31:40;;;;;;;;;;;25.00;45.50;;;;;;1589605;72;638;-61
2022/05/08 12:33:41;;;;;;;;;;;25.00;45.40;;;;;;1613261;72;661;-63
2022/05/08 12:35:43;;;;;;;;;;;25.00;45.20;;;;;;1621215;72;731;-64
2022/05/08 12:37:47;;;;;;;;;;;25.10;45.20;;;;;;1613433;72;726;-64